Time;durP1;ratioP1;P1;durP2;ratioP2;P2;SDS_P1;SDS_P2;PMS_P1;PMS_P2;Temp;Humidity;BMP_temperature;BMP_pressure;BME280_temperature;BME280_humidity;BME280_pressure;Samples;Min_cycle;Max_cycle;Signal;HPM_P1;HPM_P2
2021/04/13 00:01:17;;;;;;;25.10;14.82;;;11.50;54.60;;;;;;4355949;32;20094;-40
2021/04/13 00:04:18;;;;;;;24.10;13.73;;;11.50;55.10;;;;;;4356200;32;20147;-40
2021/04/13 00:06:49;;;;;;;26.87;14.40;;;11.50;54.00;;;;;;4341709;32;20548;-40
2021/04/13 00:09:23;;;;;;;20.42;13.95;;;11.50;53.70;;;;;;4343637;32;20173;-40
2021/04/13 00:12:02;;;;;;;22.15;14.60;;;11.40;53.50;;;;;;4356150;32;20136;-40
2021/04/13 00:14:32;;;;;;;18.17;13.35;;;11.40;53.60;;;;;;4331639;32;20093;-40
2021/04/13 00:17:02;;;;;;;20.65;14.52;;;11.40;53.50;;;;;;4343660;32;20074;-40
2021/04/13 00:20:30;;;;;;;17.45;12.88;;;11.40;53.60;;;;;;4346854;32;20088;-40
2021/04/13 00:22:57;;;;;;;17.33;13.18;;;11.30;53.60;;;;;;4366317;32;20571;-38
2021/04/13 00:25:30;;;;;;;22.58;13.55;;;11.30;53.30;;;;;;4359399;32;20054;-39
2021/04/13 00:27:57;;;;;;;18.23;13.23;;;11.20;53.50;;;;;;4373352;32;20153;-36
2021/04/13 00:30:45;;;;;;;27.85;13.73;;;11.20;53.50;;;;;;4371585;32;20528;-40
2021/04/13 00:33:33;;;;;;;16.65;12.88;;;11.20;53.50;;;;;;4373135;32;20092;-39
2021/04/13 00:36:13;;;;;;;19.70;13.48;;;11.10;53.30;;;;;;4371916;32;20207;-39
2021/04/13 00:38:50;;;;;;;21.83;13.90;;;11.10;53.90;;;;;;4373086;32;20066;-39
2021/04/13 00:41:30;;;;;;;23.02;15.20;;;11.00;53.30;;;;;;4371426;32;20070;-39
2021/04/13 00:44:07;;;;;;;29.98;15.82;;;11.00;53.30;;;;;;4371762;32;20089;-39
2021/04/13 00:47:05;;;;;;;22.67;14.43;;;11.00;53.50;;;;;;4374819;32;20069;-39
2021/04/13 00:49:36;;;;;;;20.85;14.43;;;11.00;53.70;;;;;;4371821;32;20155;-39
2021/04/13 00:52:10;;;;;;;24.63;16.12;;;11.00;53.50;;;;;;4374462;32;20078;-40
2021/04/13 00:54:55;;;;;;;25.10;16.00;;;10.90;53.60;;;;;;4374792;32;20063;-40
2021/04/13 00:57:23;;;;;;;26.60;14.83;;;10.90;53.90;;;;;;4374479;32;20541;-39
2021/04/13 00:59:49;;;;;;;25.33;16.48;;;10.90;53.80;;;;;;4374131;32;20165;-40
2021/04/13 01:02:21;;;;;;;28.80;16.85;;;10.90;53.90;;;;;;4374417;32;20070;-39
2021/04/13 01:05:20;;;;;;;30.37;16.37;;;10.90;54.20;;;;;;4374468;32;20062;-40
2021/04/13 01:07:50;;;;;;;22.75;15.35;;;10.90;54.40;;;;;;4313898;33;20186;-40
2021/04/13 01:10:30;;;;;;;26.70;15.48;;;10.90;54.20;;;;;;4302184;33;20155;-39
2021/04/13 01:13:15;;;;;;;34.35;16.40;;;11.00;54.10;;;;;;4302432;33;20120;-40
2021/04/13 01:15:48;;;;;;;28.70;16.70;;;11.00;54.20;;;;;;4288406;33;20075;-38
2021/04/13 01:18:24;;;;;;;22.83;13.30;;;11.00;54.10;;;;;;4287477;33;20075;-39
2021/04/13 01:21:35;;;;;;;28.42;16.15;;;11.00;53.80;;;;;;4287678;33;20141;-39
2021/04/13 01:24:23;;;;;;;24.02;14.95;;;11.10;53.90;;;;;;4298767;33;20457;-39
2021/04/13 01:26:51;;;;;;;23.75;15.00;;;11.00;53.50;;;;;;4299510;33;21287;-40
2021/04/13 01:29:20;;;;;;;31.73;15.55;;;11.00;53.50;;;;;;4299407;33;20102;-39
2021/04/13 01:31:54;;;;;;;61.33;24.63;;;10.90;53.50;;;;;;4299377;33;20145;-39
2021/04/13 01:34:54;;;;;;;33.63;18.58;;;10.90;53.70;;;;;;4299401;33;20084;-39
2021/04/13 01:38:17;;;;;;;39.53;17.95;;;10.90;53.80;;;;;;4298867;33;20111;-39
2021/04/13 01:40:46;;;;;;;64.18;23.15;;;10.90;53.60;;;;;;4291045;33;20652;-41
2021/04/13 01:43:13;;;;;;;51.08;20.40;;;10.90;53.70;;;;;;4292392;33;20103;-39
2021/04/13 01:45:39;;;;;;;65.37;19.85;;;10.90;53.70;;;;;;4332907;32;20065;-39
2021/04/13 01:48:07;;;;;;;28.10;15.82;;;10.90;53.70;;;;;;4373358;32;20092;-40
2021/04/13 01:50:38;;;;;;;28.52;15.15;;;10.90;53.80;;;;;;4374025;32;20530;-39
2021/04/13 01:53:17;;;;;;;33.13;17.58;;;10.90;53.90;;;;;;4373776;32;20073;-41
2021/04/13 01:56:02;;;;;;;49.53;21.45;;;10.90;53.80;;;;;;4373244;32;20054;-40
2021/04/13 01:58:59;;;;;;;29.20;17.05;;;10.80;53.70;;;;;;4361692;32;20062;-40
2021/04/13 02:01:38;;;;;;;55.42;20.60;;;10.80;53.90;;;;;;4373697;32;20054;-39
2021/04/13 02:04:27;;;;;;;53.65;20.62;;;10.80;53.80;;;;;;4374986;32;20156;-39
2021/04/13 02:07:13;;;;;;;50.45;20.42;;;10.80;53.90;;;;;;4373312;32;20058;-40
2021/04/13 02:09:42;;;;;;;35.47;19.30;;;10.80;53.70;;;;;;4373283;32;20477;-40
2021/04/13 02:12:15;;;;;;;30.25;16.67;;;10.90;53.70;;;;;;4374867;32;20065;-39
2021/04/13 02:15:06;;;;;;;30.37;16.02;;;10.90;53.70;;;;;;4374990;32;20155;-39
2021/04/13 02:17:48;;;;;;;38.65;18.50;;;10.90;53.70;;;;;;4374066;32;20133;-39
2021/04/13 02:20:15;;;;;;;33.58;17.48;;;10.80;53.80;;;;;;4373470;32;20082;-39
2021/04/13 02:22:46;;;;;;;42.17;17.92;;;10.80;53.70;;;;;;4373348;32;20066;-39
2021/04/13 02:25:15;;;;;;;41.65;17.55;;;10.80;53.80;;;;;;4373338;32;20074;-40
2021/04/13 02:27:42;;;;;;;41.83;19.87;;;10.90;53.90;;;;;;4372935;32;20070;-40
2021/04/13 02:30:11;;;;;;;67.37;24.10;;;10.90;54.20;;;;;;4373063;32;20602;-41
2021/04/13 02:32:46;;;;;;;56.72;24.25;;;10.90;54.40;;;;;;4374367;32;20067;-40
2021/04/13 02:35:25;;;;;;;69.00;27.50;;;11.00;54.60;;;;;;4372978;32;20054;-39
2021/04/13 02:38:00;;;;;;;76.45;27.10;;;11.10;54.70;;;;;;4373160;32;20065;-40
2021/04/13 02:40:50;;;;;;;47.40;24.08;;;11.10;55.00;;;;;;4372854;32;20552;-40
2021/04/13 02:43:37;;;;;;;77.72;28.17;;;11.20;55.30;;;;;;4360807;32;20077;-40
2021/04/13 02:46:07;;;;;;;90.87;28.20;;;11.20;55.40;;;;;;4374488;32;20137;-41
2021/04/13 02:48:41;;;;;;;91.75;27.62;;;11.40;55.50;;;;;;4372922;32;20135;-38
2021/04/13 02:51:12;;;;;;;73.57;25.23;;;11.50;56.30;;;;;;4373253;32;20516;-40
2021/04/13 02:53:55;;;;;;;103.35;30.88;;;11.60;55.50;;;;;;4361003;32;20151;-39
2021/04/13 02:56:51;;;;;;;104.82;31.08;;;11.80;55.60;;;;;;4372887;32;20066;-39
2021/04/13 02:59:20;;;;;;;104.95;30.95;;;11.90;55.80;;;;;;4372383;32;20101;-41
2021/04/13 03:02:03;;;;;;;104.55;34.20;;;12.20;56.10;;;;;;4374298;32;20474;-40
2021/04/13 03:04:29;;;;;;;66.95;26.33;;;12.30;56.60;;;;;;4374315;32;20571;-41
2021/04/13 03:06:57;;;;;;;88.35;28.65;;;12.50;56.60;;;;;;4372561;32;20094;-40
2021/04/13 03:09:26;;;;;;;69.80;24.87;;;12.70;56.90;;;;;;4359166;32;20498;-41
2021/04/13 03:11:59;;;;;;;60.05;19.17;;;12.90;56.40;;;;;;4372459;32;20062;-41
2021/04/13 03:14:25;;;;;;;45.38;15.68;;;13.10;56.20;;;;;;4372251;32;20559;-40
2021/04/13 03:16:55;;;;;;;48.95;16.27;;;13.30;56.00;;;;;;4348232;32;20073;-40
2021/04/13 03:19:22;;;;;;;47.25;13.02;;;13.50;55.80;;;;;;4348625;32;20065;-41
2021/04/13 03:21:56;;;;;;;45.30;13.62;;;13.70;55.40;;;;;;4374226;32;20070;-41
2021/04/13 03:24:30;;;;;;;40.10;12.43;;;13.90;54.90;;;;;;4372199;32;20070;-41
2021/04/13 03:26:58;;;;;;;27.65;10.93;;;14.00;54.40;;;;;;4374065;32;20526;-40
2021/04/13 03:29:41;;;;;;;30.65;11.45;;;14.10;54.10;;;;;;4373853;32;20070;-40
2021/04/13 03:32:08;;;;;;;37.88;13.38;;;14.20;53.80;;;;;;4372259;32;20078;-41
2021/04/13 03:34:38;;;;;;;27.85;11.00;;;14.30;53.70;;;;;;4360274;32;20581;-41
2021/04/13 03:37:04;;;;;;;34.03;10.57;;;14.40;53.50;;;;;;4360819;32;20080;-41
2021/04/13 03:39:37;;;;;;;53.85;12.57;;;14.50;53.10;;;;;;4359282;32;20162;-41
2021/04/13 03:42:04;;;;;;;41.50;13.65;;;14.60;52.90;;;;;;4374072;32;20081;-41
2021/04/13 03:44:31;;;;;;;30.55;11.95;;;14.80;53.10;;;;;;4371890;32;20548;-41
2021/04/13 03:46:57;;;;;;;36.95;11.52;;;15.00;53.40;;;;;;4359539;32;20601;-41
2021/04/13 03:49:32;;;;;;;44.25;12.18;;;15.30;53.30;;;;;;4373470;32;20587;-40
2021/04/13 03:52:29;;;;;;;39.88;12.35;;;15.60;53.20;;;;;;4372009;32;20186;-41
2021/04/13 03:54:56;;;;;;;44.08;14.23;;;16.00;52.80;;;;;;4372991;32;20066;-41
2021/04/13 03:57:34;;;;;;;59.50;13.50;;;16.40;52.30;;;;;;4373678;32;20502;-42
2021/04/13 04:00:05;;;;;;;65.70;15.02;;;16.70;52.00;;;;;;4373449;32;20077;-43
2021/04/13 04:02:32;;;;;;;82.03;16.65;;;17.00;51.20;;;;;;4373694;32;20561;-42
2021/04/13 04:05:22;;;;;;;83.68;12.00;;;17.30;50.50;;;;;;4359798;32;20582;-41
2021/04/13 04:07:57;;;;;;;42.25;11.35;;;17.60;50.00;;;;;;4373457;32;20091;-41
2021/04/13 04:10:42;;;;;;;81.37;13.43;;;17.80;49.30;;;;;;4372134;32;20058;-41
2021/04/13 04:13:29;;;;;;;39.40;10.70;;;17.90;48.70;;;;;;4373953;32;20154;-41
2021/04/13 04:16:32;;;;;;;41.63;10.93;;;18.00;48.40;;;;;;4372241;32;20054;-40
2021/04/13 04:19:12;;;;;;;42.15;10.95;;;18.20;48.50;;;;;;4311354;33;20237;-41
2021/04/13 04:21:46;;;;;;;44.00;12.30;;;18.40;47.50;;;;;;4299594;33;20117;-43
2021/04/13 04:24:41;;;;;;;69.57;15.00;;;18.50;47.20;;;;;;4300108;33;20153;-41
2021/04/13 04:27:46;;;;;;;43.85;12.93;;;18.60;47.00;;;;;;4288362;33;20530;-42
2021/04/13 04:30:26;;;;;;;57.78;14.95;;;18.70;46.30;;;;;;4253578;33;20083;-41
2021/04/13 04:32:54;;;;;;;60.83;14.23;;;18.90;45.50;;;;;;4253823;33;20083;-42
2021/04/13 04:35:42;;;;;;;56.28;14.23;;;19.00;45.50;;;;;;4253794;33;20544;-42
2021/04/13 04:38:14;;;;;;;45.53;11.57;;;19.10;45.40;;;;;;4254175;33;20084;-43
2021/04/13 04:40:51;;;;;;;52.33;13.32;;;19.30;44.40;;;;;;4253778;33;20106;-37
2021/04/13 04:43:20;;;;;;;68.43;13.80;;;19.40;43.70;;;;;;4254184;33;20179;-41
2021/04/13 04:45:49;;;;;;;55.50;12.88;;;19.60;43.80;;;;;;4253912;33;20088;-41
2021/04/13 04:48:28;;;;;;;63.97;12.80;;;19.80;44.20;;;;;;4253752;33;20069;-41
2021/04/13 04:51:14;;;;;;;82.12;14.68;;;20.00;43.50;;;;;;4254443;33;20184;-43
2021/04/13 04:53:42;;;;;;;85.53;13.45;;;20.40;43.00;;;;;;4299887;33;20165;-42
2021/04/13 04:56:10;;;;;;;62.13;13.60;;;20.70;42.20;;;;;;4299872;33;20142;-43
2021/04/13 04:58:37;;;;;;;102.10;16.15;;;21.00;41.60;;;;;;4311941;33;20067;-43
2021/04/13 05:01:04;;;;;;;83.15;14.32;;;21.20;41.30;;;;;;4311352;33;20144;-42
2021/04/13 05:03:30;;;;;;;60.95;11.55;;;21.50;40.80;;;;;;4310986;33;20158;-43
2021/04/13 05:05:58;;;;;;;24.50;6.72;;;21.80;40.30;;;;;;4325498;32;20502;-42
2021/04/13 05:08:25;;;;;;;24.77;6.50;;;22.10;39.90;;;;;;4373153;32;20073;-43
2021/04/13 05:10:52;;;;;;;23.38;7.47;;;22.40;39.00;;;;;;4373396;32;20074;-43
2021/04/13 05:13:19;;;;;;;33.13;7.28;;;22.70;37.90;;;;;;4373265;32;20084;-42
2021/04/13 05:15:46;;;;;;;34.13;10.25;;;23.00;36.80;;;;;;4373529;32;20058;-42
2021/04/13 05:18:13;;;;;;;24.25;7.57;;;23.20;35.90;;;;;;4373623;32;20077;-37
2021/04/13 05:20:40;;;;;;;21.95;6.87;;;23.40;35.20;;;;;;4373618;32;20140;-42
2021/04/13 05:23:06;;;;;;;54.75;8.57;;;23.50;34.90;;;;;;4376628;32;20595;-42
2021/04/13 05:25:33;;;;;;;28.50;7.05;;;23.60;34.50;;;;;;4388139;32;20100;-42
2021/04/13 05:28:00;;;;;;;34.63;8.88;;;23.60;34.40;;;;;;4388098;32;20054;-42
2021/04/13 05:30:26;;;;;;;37.90;9.00;;;23.60;34.30;;;;;;4387182;32;20074;-42
2021/04/13 05:32:53;;;;;;;39.85;8.40;;;23.60;34.10;;;;;;4390096;32;20476;-42
2021/04/13 05:35:20;;;;;;;51.90;9.70;;;23.50;33.80;;;;;;4391248;32;20058;-43
2021/04/13 05:37:47;;;;;;;31.00;7.78;;;23.50;34.10;;;;;;4389435;32;20084;-41
2021/04/13 05:40:24;;;;;;;31.17;8.07;;;23.50;33.90;;;;;;4391473;32;20065;-43
2021/04/13 05:42:51;;;;;;;18.30;7.25;;;23.40;33.60;;;;;;4390546;32;20526;-44
2021/04/13 05:45:18;;;;;;;21.65;6.32;;;23.30;33.90;;;;;;4364363;32;20062;-43
2021/04/13 05:47:45;;;;;;;35.08;6.93;;;23.10;33.90;;;;;;4390986;32;20062;-40
2021/04/13 05:50:23;;;;;;;15.35;6.55;;;23.10;34.60;;;;;;4391101;32;20055;-39
2021/04/13 05:52:49;;;;;;;29.60;8.05;;;23.20;34.10;;;;;;4389629;32;20063;-43
2021/04/13 05:55:16;;;;;;;27.37;7.62;;;23.30;33.90;;;;;;4390488;32;20074;-40
2021/04/13 05:57:43;;;;;;;25.70;7.97;;;23.50;34.10;;;;;;4390739;32;20066;-42
2021/04/13 06:00:10;;;;;;;38.00;7.72;;;23.50;33.70;;;;;;4364749;32;20093;-44
2021/04/13 06:02:39;;;;;;;19.15;6.68;;;23.50;33.10;;;;;;4390836;32;20465;-40
2021/04/13 06:05:07;;;;;;;27.05;7.12;;;23.50;32.80;;;;;;4390806;32;20089;-43
2021/04/13 06:07:34;;;;;;;27.20;6.57;;;23.50;32.70;;;;;;4376445;32;20152;-41
2021/04/13 06:10:01;;;;;;;29.50;7.62;;;23.60;32.80;;;;;;4390596;32;20061;-42
2021/04/13 06:12:27;;;;;;;30.90;8.18;;;23.70;32.90;;;;;;4390539;32;20486;-42
2021/04/13 06:14:54;;;;;;;30.58;6.50;;;23.80;32.50;;;;;;4390441;32;20060;-42
2021/04/13 06:17:20;;;;;;;15.48;3.70;;;24.00;31.60;;;;;;4388821;32;20066;-43
2021/04/13 06:19:47;;;;;;;27.58;6.95;;;24.20;31.10;;;;;;4390408;32;20070;-40
2021/04/13 06:22:14;;;;;;;24.95;4.00;;;24.50;31.00;;;;;;4390644;32;20065;-41
2021/04/13 06:24:41;;;;;;;30.02;3.65;;;24.90;29.80;;;;;;4377202;32;20090;-43
2021/04/13 06:27:08;;;;;;;15.85;2.45;;;25.50;29.50;;;;;;4375803;32;20096;-42
2021/04/13 06:29:37;;;;;;;9.40;1.65;;;26.00;27.80;;;;;;4375631;32;20101;-42
2021/04/13 06:32:06;;;;;;;7.78;1.30;;;26.60;26.40;;;;;;4346236;32;20075;-42
2021/04/13 06:34:33;;;;;;;12.20;1.90;;;27.10;25.70;;;;;;4358517;32;20703;-42
2021/04/13 06:37:01;;;;;;;10.02;1.30;;;27.70;25.20;;;;;;4358447;32;20089;-42
2021/04/13 06:39:27;;;;;;;8.98;1.90;;;28.20;24.60;;;;;;4345948;32;20067;-42
2021/04/13 06:42:04;;;;;;;4.80;1.05;;;28.70;24.00;;;;;;4358412;32;20081;-42
2021/04/13 06:44:49;;;;;;;20.95;2.08;;;29.10;23.60;;;;;;4346527;32;20156;-41
2021/04/13 06:47:31;;;;;;;9.32;1.52;;;29.50;23.00;;;;;;4358148;32;20062;-41
2021/04/13 06:50:04;;;;;;;3.97;1.60;;;29.90;22.60;;;;;;4345820;32;20063;-42
2021/04/13 06:53:14;;;;;;;16.12;2.42;;;30.20;22.50;;;;;;4346171;32;20522;-40
2021/04/13 06:56:17;;;;;;;11.32;1.70;;;30.40;23.20;;;;;;4348092;32;20132;-41
2021/04/13 06:58:54;;;;;;;11.00;2.30;;;30.70;22.50;;;;;;4358448;32;20138;-42
2021/04/13 07:01:51;;;;;;;65.10;4.25;;;30.90;21.80;;;;;;4346353;32;20057;-41
2021/04/13 07:05:09;;;;;;;6.97;1.45;;;31.00;21.80;;;;;;4337843;32;20549;-42
2021/04/13 07:08:12;;;;;;;6.18;1.17;;;31.10;21.90;;;;;;4298309;33;20086;-41
2021/04/13 07:10:48;;;;;;;14.48;1.80;;;31.20;21.70;;;;;;4312676;33;20075;-41
2021/04/13 07:13:42;;;;;;;23.20;2.28;;;31.20;21.20;;;;;;4290589;33;20670;-41
2021/04/13 07:16:22;;;;;;;20.45;2.95;;;31.30;21.50;;;;;;4301992;33;20091;-40
2021/04/13 07:19:12;;;;;;;12.30;2.20;;;31.20;21.00;;;;;;4302039;33;20072;-41
2021/04/13 07:22:04;;;;;;;13.73;1.58;;;31.20;20.90;;;;;;4303846;33;20146;-38
2021/04/13 07:25:12;;;;;;;5.53;1.20;;;31.20;20.70;;;;;;4313053;33;20074;-42
2021/04/13 07:27:51;;;;;;;25.52;2.25;;;31.20;21.00;;;;;;4284122;33;20152;-41
2021/04/13 07:30:24;;;;;;;14.75;1.67;;;31.20;20.90;;;;;;4272280;33;20591;-41
2021/04/13 07:32:55;;;;;;;13.23;2.22;;;31.20;20.80;;;;;;4260893;33;20079;-44
2021/04/13 07:35:22;;;;;;;20.15;1.65;;;31.10;20.90;;;;;;4284314;33;20075;-41
2021/04/13 07:37:51;;;;;;;8.80;1.55;;;31.00;21.10;;;;;;4260047;33;20068;-42
2021/04/13 07:40:27;;;;;;;12.20;1.85;;;30.90;20.60;;;;;;4255090;33;20101;-41
2021/04/13 07:43:04;;;;;;;5.78;1.67;;;30.80;21.20;;;;;;4254861;33;20497;-43
2021/04/13 07:46:13;;;;;;;14.80;1.85;;;30.60;21.00;;;;;;4269328;33;20079;-43
2021/04/13 07:48:58;;;;;;;9.27;1.30;;;30.50;21.50;;;;;;4269586;33;20170;-41
2021/04/13 07:51:42;;;;;;;12.30;1.25;;;30.30;21.30;;;;;;4269342;33;20067;-41
2021/04/13 07:54:44;;;;;;;16.40;2.35;;;30.00;21.30;;;;;;4268813;33;20540;-43
2021/04/13 07:57:18;;;;;;;4.72;1.40;;;29.80;21.90;;;;;;4269533;33;20171;-42
2021/04/13 08:00:05;;;;;;;12.50;1.37;;;29.70;21.40;;;;;;4269093;33;20061;-40
2021/04/13 08:02:32;;;;;;;5.05;1.52;;;29.40;21.70;;;;;;4269566;33;20072;-41
2021/04/13 08:04:59;;;;;;;10.02;1.67;;;29.10;21.70;;;;;;4309137;33;20059;-41
2021/04/13 08:07:41;;;;;;;17.40;2.25;;;28.90;21.90;;;;;;4341971;33;20084;-42
2021/04/13 08:10:18;;;;;;;11.88;1.90;;;28.70;22.40;;;;;;4342112;33;20151;-43
2021/04/13 08:12:57;;;;;;;9.52;1.92;;;28.70;22.60;;;;;;4372161;32;20074;-42
2021/04/13 08:15:46;;;;;;;12.35;1.83;;;28.70;22.30;;;;;;4373929;32;20066;-38
2021/04/13 08:18:38;;;;;;;8.02;1.50;;;28.70;22.50;;;;;;4373509;32;20078;-43
2021/04/13 08:21:14;;;;;;;5.72;1.52;;;28.60;22.30;;;;;;4374054;32;20098;-42
2021/04/13 08:23:41;;;;;;;13.65;5.18;;;28.60;22.10;;;;;;4380726;32;20074;-40
2021/04/13 08:26:31;;;;;;;3.87;1.20;;;28.50;22.20;;;;;;4388810;32;20054;-41
2021/04/13 08:29:35;;;;;;;10.75;2.55;;;28.50;22.30;;;;;;4374401;32;20150;-41
2021/04/13 08:35:24;;;;;;;5.60;1.20;;;28.80;22.90;;;;;;4388183;32;20121;-41
2021/04/13 08:38:28;;;;;;;13.98;2.00;;;29.00;21.90;;;;;;4388377;32;20081;-41
2021/04/13 08:41:11;;;;;;;9.50;1.37;;;29.20;22.20;;;;;;4388363;32;20070;-37
2021/04/13 08:43:51;;;;;;;4.32;1.25;;;29.30;21.90;;;;;;4386926;32;20123;-39
2021/04/13 08:46:35;;;;;;;10.48;1.95;;;29.40;21.60;;;;;;4388096;32;20081;-41
2021/04/13 08:49:53;;;;;;;7.72;1.23;;;29.50;21.30;;;;;;4387457;32;20142;-41
2021/04/13 08:52:42;;;;;;;11.57;1.98;;;29.70;21.20;;;;;;4325827;33;20079;-40
2021/04/13 08:55:20;;;;;;;7.12;1.40;;;30.00;21.50;;;;;;4315226;33;20071;-39
2021/04/13 08:58:37;;;;;;;6.55;1.23;;;30.20;20.60;;;;;;4302231;33;20168;-41
2021/04/13 09:01:19;;;;;;;9.85;1.50;;;30.50;20.90;;;;;;4256326;33;20536;-40
2021/04/13 09:03:45;;;;;;;13.45;1.98;;;30.80;21.00;;;;;;4267801;33;20092;-39
2021/04/13 09:06:16;;;;;;;3.47;1.33;;;31.00;20.50;;;;;;4269778;33;20107;-40
2021/04/13 09:09:33;;;;;;;20.58;2.12;;;31.20;20.00;;;;;;4259813;33;20087;-40
2021/04/13 09:11:59;;;;;;;5.80;1.62;;;31.30;20.50;;;;;;4265789;33;20169;-39
2021/04/13 09:14:48;;;;;;;11.23;2.22;;;31.30;20.10;;;;;;4257322;33;20061;-38
2021/04/13 09:17:20;;;;;;;8.18;1.60;;;31.40;20.10;;;;;;4257571;33;20073;-40
2021/04/13 09:20:08;;;;;;;5.78;1.52;;;31.50;19.70;;;;;;4256737;33;20080;-40
2021/04/13 09:22:46;;;;;;;9.40;1.75;;;31.50;19.60;;;;;;4270243;33;20112;-40
2021/04/13 09:25:39;;;;;;;5.75;1.37;;;31.60;19.40;;;;;;4267692;33;20119;-40
2021/04/13 09:28:13;;;;;;;53.80;4.80;;;31.70;19.40;;;;;;4262527;33;20072;-41
2021/04/13 09:30:45;;;;;;;5.47;1.87;;;31.90;19.60;;;;;;4283280;33;20088;-39
2021/04/13 09:33:21;;;;;;;8.85;1.83;;;32.00;19.20;;;;;;4282865;33;20070;-38
2021/04/13 09:36:07;;;;;;;10.27;1.30;;;32.10;19.30;;;;;;4271805;33;20091;-41
2021/04/13 09:39:10;;;;;;;10.95;1.37;;;32.30;19.10;;;;;;4314411;33;20076;-40
2021/04/13 09:41:56;;;;;;;8.50;1.50;;;32.50;19.30;;;;;;4314573;33;20072;-41
2021/04/13 09:44:35;;;;;;;10.20;1.87;;;32.60;19.20;;;;;;4314367;33;20721;-41
2021/04/13 09:47:37;;;;;;;16.37;2.53;;;32.70;19.30;;;;;;4314620;33;20088;-39
2021/04/13 09:50:24;;;;;;;4.47;0.95;;;32.80;19.30;;;;;;4350009;32;20090;-40
2021/04/13 09:53:20;;;;;;;8.00;1.33;;;33.00;18.90;;;;;;4347622;32;20138;-41
2021/04/13 09:56:12;;;;;;;5.60;1.20;;;33.00;18.60;;;;;;4363510;32;20594;-40
2021/04/13 09:59:26;;;;;;;8.00;1.27;;;33.10;18.60;;;;;;4373731;32;20062;-39
2021/04/13 10:02:27;;;;;;;12.27;2.95;;;33.10;18.60;;;;;;4329459;33;20118;-40
2021/04/13 10:04:56;;;;;;;8.65;1.40;;;33.10;18.60;;;;;;4318965;33;20173;-41
2021/04/13 10:07:23;;;;;;;8.85;1.20;;;33.20;18.60;;;;;;4329571;33;20122;-40
2021/04/13 10:09:50;;;;;;;17.20;1.60;;;33.30;18.50;;;;;;4329823;33;20089;-39
2021/04/13 10:13:02;;;;;;;9.13;1.02;;;33.40;18.60;;;;;;4317419;33;20079;-41
2021/04/13 10:16:03;;;;;;;13.13;1.20;;;33.40;18.50;;;;;;4321545;33;20156;-40
2021/04/13 10:19:02;;;;;;;7.25;2.53;;;33.30;18.30;;;;;;4319164;33;20111;-40
2021/04/13 10:22:41;;;;;;;13.50;2.53;;;33.30;18.40;;;;;;4332175;33;20557;-39
2021/04/13 10:25:37;;;;;;;6.22;1.15;;;33.30;19.00;;;;;;4298517;33;20064;-40
2021/04/13 10:28:30;;;;;;;13.13;1.87;;;33.40;18.70;;;;;;4308043;33;20551;-40
2021/04/13 10:31:37;;;;;;;6.55;1.30;;;33.50;18.20;;;;;;4313545;33;20180;-40
2021/04/13 10:34:50;;;;;;;12.23;1.83;;;33.60;18.40;;;;;;4304101;33;20084;-41
2021/04/13 10:37:31;;;;;;;6.85;1.60;;;33.60;18.80;;;;;;4373729;32;20070;-41
2021/04/13 10:40:19;;;;;;;9.80;2.10;;;33.60;18.40;;;;;;4375022;32;20062;-39
2021/04/13 10:43:14;;;;;;;7.00;1.15;;;33.60;18.40;;;;;;4375301;32;20149;-39
2021/04/13 10:46:25;;;;;;;18.87;1.77;;;33.60;18.60;;;;;;4363290;32;20098;-41
2021/04/13 10:49:13;;;;;;;9.73;1.52;;;33.60;18.60;;;;;;4375024;32;20117;-40
2021/04/13 10:52:10;;;;;;;11.88;1.80;;;33.50;18.40;;;;;;4362693;32;20074;-40
2021/04/13 10:55:20;;;;;;;11.35;1.83;;;33.30;18.50;;;;;;4374524;32;20169;-39
2021/04/13 10:58:14;;;;;;;8.07;1.25;;;32.90;18.50;;;;;;4374248;32;20072;-38
2021/04/13 11:01:19;;;;;;;7.20;1.23;;;32.50;18.60;;;;;;4374248;32;20161;-40
2021/04/13 11:04:23;;;;;;;9.45;1.45;;;32.40;18.60;;;;;;4373263;32;20095;-41
2021/04/13 11:07:59;;;;;;;7.00;1.10;;;32.30;18.80;;;;;;4374144;32;20069;-40
2021/04/13 11:11:01;;;;;;;18.73;2.55;;;32.10;19.00;;;;;;4341722;33;20066;-41
2021/04/13 11:14:10;;;;;;;12.57;2.72;;;32.10;19.10;;;;;;4283207;33;20147;-41
2021/04/13 11:17:19;;;;;;;11.57;1.30;;;32.00;19.00;;;;;;4341969;33;20161;-42
2021/04/13 11:20:25;;;;;;;7.70;1.00;;;32.00;18.70;;;;;;4331773;33;20467;-41
2021/04/13 11:23:15;;;;;;;10.32;1.15;;;32.10;18.60;;;;;;4331619;32;20063;-41
2021/04/13 11:26:07;;;;;;;4.32;0.80;;;32.10;18.50;;;;;;4345048;32;20069;-41
2021/04/13 11:29:10;;;;;;;5.37;0.95;;;32.10;18.40;;;;;;4343587;32;20130;-40
2021/04/13 11:32:33;;;;;;;6.03;0.90;;;32.00;18.50;;;;;;4356603;32;20064;-41
2021/04/13 11:35:40;;;;;;;13.02;1.60;;;31.90;18.40;;;;;;4356252;32;20081;-41
2021/04/13 11:38:42;;;;;;;9.95;1.73;;;31.80;18.80;;;;;;4333466;32;20125;-40
2021/04/13 11:41:20;;;;;;;15.02;1.50;;;31.70;19.00;;;;;;4345107;32;20531;-42
2021/04/13 11:44:32;;;;;;;7.62;1.27;;;31.60;18.90;;;;;;4343599;32;20506;-40
2021/04/13 11:47:22;;;;;;;6.97;1.10;;;31.60;18.90;;;;;;4357084;32;20062;-40
2021/04/13 11:50:31;;;;;;;14.07;1.48;;;31.50;18.70;;;;;;4353540;32;20055;-41
2021/04/13 11:53:13;;;;;;;21.00;2.28;;;31.40;19.10;;;;;;4356769;32;20171;-40
2021/04/13 11:55:49;;;;;;;4.20;0.80;;;31.30;19.00;;;;;;4357306;32;20058;-42
2021/04/13 11:58:26;;;;;;;6.25;1.30;;;31.20;18.70;;;;;;4358377;32;20519;-42
2021/04/13 12:01:12;;;;;;;4.57;0.70;;;31.20;18.80;;;;;;4358521;32;20059;-42
2021/04/13 12:04:01;;;;;;;7.22;0.90;;;31.10;18.70;;;;;;4357921;32;20071;-42
2021/04/13 12:06:46;;;;;;;3.25;0.70;;;31.10;18.80;;;;;;4358510;32;20063;-42
2021/04/13 12:09:46;;;;;;;13.73;1.75;;;31.10;18.90;;;;;;4358205;32;20074;-42
2021/04/13 12:12:31;;;;;;;19.30;1.77;;;31.10;18.70;;;;;;4358536;32;20451;-43
2021/04/13 12:15:39;;;;;;;10.82;0.98;;;31.20;18.80;;;;;;4358254;32;20086;-41
2021/04/13 12:18:36;;;;;;;7.57;1.33;;;31.20;19.20;;;;;;4346216;32;20477;-41
2021/04/13 12:21:25;;;;;;;12.32;1.62;;;31.30;18.70;;;;;;4358766;32;20054;-41
2021/04/13 12:24:02;;;;;;;27.23;2.12;;;31.40;19.00;;;;;;4358373;32;20051;-41
2021/04/13 12:26:40;;;;;;;4.28;0.75;;;31.40;18.70;;;;;;4358492;32;20081;-41
2021/04/13 12:29:35;;;;;;;5.60;1.00;;;31.40;18.20;;;;;;4358358;32;20093;-41
2021/04/13 12:32:11;;;;;;;14.90;1.35;;;31.50;18.50;;;;;;4343944;32;20082;-41
2021/04/13 12:34:49;;;;;;;6.15;0.93;;;31.70;18.80;;;;;;4357996;32;20469;-38
2021/04/13 12:37:35;;;;;;;26.87;2.12;;;31.80;18.50;;;;;;4358418;32;20116;-42
2021/04/13 12:40:21;;;;;;;9.57;1.42;;;31.90;18.50;;;;;;4386709;32;20084;-41
2021/04/13 12:43:06;;;;;;;11.05;1.12;;;32.00;18.40;;;;;;4388100;32;20546;-40
2021/04/13 12:45:48;;;;;;;21.02;2.25;;;32.10;18.30;;;;;;4387997;32;20064;-40
2021/04/13 12:48:21;;;;;;;4.72;1.33;;;32.30;18.20;;;;;;4386984;32;20058;-40
2021/04/13 12:51:00;;;;;;;3.53;0.75;;;32.40;18.00;;;;;;4386575;32;20450;-41
2021/04/13 12:53:27;;;;;;;13.25;1.42;;;32.50;17.90;;;;;;4388036;32;20077;-40
2021/04/13 12:56:07;;;;;;;21.75;2.15;;;32.60;18.00;;;;;;4373726;32;20089;-41
2021/04/13 12:58:40;;;;;;;16.87;1.33;;;32.70;18.00;;;;;;4374248;32;20120;-39
2021/04/13 13:01:07;;;;;;;18.23;1.20;;;32.70;17.90;;;;;;4388150;32;20070;-41
2021/04/13 13:03:40;;;;;;;6.20;0.82;;;32.80;17.80;;;;;;4388033;32;20149;-41
2021/04/13 13:06:37;;;;;;;15.55;1.15;;;32.80;17.70;;;;;;4388090;32;20068;-40
2021/04/13 13:09:08;;;;;;;4.50;0.90;;;32.80;17.90;;;;;;4325623;33;20079;-43
2021/04/13 13:11:37;;;;;;;8.02;0.88;;;32.90;17.60;;;;;;4325969;33;20603;-39
2021/04/13 13:14:05;;;;;;;4.40;0.90;;;32.90;17.50;;;;;;4301592;33;20063;-40
2021/04/13 13:16:31;;;;;;;4.53;1.60;;;32.90;17.60;;;;;;4314004;33;20093;-38
2021/04/13 13:18:58;;;;;;;10.65;1.30;;;32.90;17.60;;;;;;4325875;33;20081;-40
2021/04/13 13:21:30;;;;;;;6.28;0.90;;;32.80;17.70;;;;;;4325729;33;20078;-40
2021/04/13 13:24:16;;;;;;;6.68;1.10;;;32.70;17.60;;;;;;4313560;33;20154;-41
2021/04/13 13:26:42;;;;;;;11.10;0.93;;;32.70;17.60;;;;;;4326243;33;20079;-39
2021/04/13 13:29:09;;;;;;;18.00;1.92;;;32.70;17.50;;;;;;4326143;33;20094;-42
2021/04/13 13:31:37;;;;;;;5.37;0.85;;;32.70;17.50;;;;;;4325728;33;20151;-41
2021/04/13 13:34:06;;;;;;;9.20;1.20;;;32.70;17.40;;;;;;4313918;33;20074;-42
2021/04/13 13:36:35;;;;;;;27.30;2.25;;;32.70;17.40;;;;;;4313598;33;20523;-41
2021/04/13 13:39:19;;;;;;;12.48;1.50;;;32.60;17.50;;;;;;4301663;33;20114;-40
2021/04/13 13:41:49;;;;;;;16.15;1.40;;;32.60;17.40;;;;;;4314111;33;20143;-44
2021/04/13 13:44:46;;;;;;;9.85;1.58;;;32.60;17.60;;;;;;4314919;32;20059;-40
2021/04/13 13:47:31;;;;;;;9.88;1.20;;;32.70;17.70;;;;;;4374622;32;20062;-40
2021/04/13 13:50:00;;;;;;;13.20;1.48;;;32.60;17.60;;;;;;4387697;32;20056;-41